Terminal Aerodrome Forecast
Issued by NWS

Home | Current Version | Previous Version | Graphics & Text | Print | Product List | Glossary On
Versions: 1 2 3 4 5 6 7 8 9 10 11 12 13
000
FTUS43 KICT 021202 AAA
TAFHUT
TAF AMD
KHUT 021202Z 0212/0312 19010KT P6SM VCSH BKN120
     FM021400 18012KT P6SM SCT120 BKN150
     FM021700 17017G25KT P6SM FEW070
     FM030000 16010KT P6SM SKC=

USA.gov is the U.S. government's official web portal to all federal, state and local government web resources and services.